Time;durP1;ratioP1;P1;durP2;ratioP2;P2;SDS_P1;SDS_P2;PMS_P1;PMS_P2;Temp;Humidity;BMP_temperature;BMP_pressure;BME280_temperature;BME280_humidity;BME280_pressure;Samples;Min_cycle;Max_cycle;Signal;HPM_P1;HPM_P2
2022/03/03 00:00:55;;;;;;;35.10;26.27;;;;;;;5.03;54.58;102184.59;5172281;28;20522;-60
2022/03/03 00:03:28;;;;;;;35.05;25.48;;;;;;;5.03;54.75;102186.34;5174874;28;20518;-51
2022/03/03 00:06:00;;;;;;;36.40;26.08;;;;;;;4.99;54.61;102184.84;5182784;28;20502;-51
2022/03/03 00:08:34;;;;;;;36.45;26.48;;;;;;;4.99;54.63;102185.69;5173723;28;20557;-48
2022/03/03 00:11:06;;;;;;;35.90;25.08;;;;;;;4.96;54.47;102185.84;5164597;28;20488;-58
2022/03/03 00:13:39;;;;;;;38.45;27.60;;;;;;;4.93;55.04;102178.16;5174974;28;20421;-49
2022/03/03 00:16:11;;;;;;;36.38;26.63;;;;;;;4.91;54.95;102182.59;5175672;28;21030;-47
2022/03/03 00:18:44;;;;;;;33.70;25.02;;;;;;;4.87;54.68;102175.84;5177729;28;20901;-54
2022/03/03 00:21:16;;;;;;;32.97;24.25;;;;;;;4.62;54.89;102145.72;5172211;28;20455;-47
2022/03/03 00:23:50;;;;;;;34.55;26.25;;;;;;;4.83;54.99;102184.78;5168400;28;20413;-50
2022/03/03 00:26:23;;;;;;;37.08;26.00;;;;;;;4.78;54.81;102189.41;5174204;28;20458;-52
2022/03/03 00:28:55;;;;;;;36.67;25.58;;;;;;;4.74;54.85;102180.00;5175009;28;20908;-47
2022/03/03 00:31:28;;;;;;;37.53;28.08;;;;;;;4.77;55.09;102185.09;5172901;28;20529;-49
2022/03/03 00:34:00;;;;;;;35.67;26.05;;;;;;;4.72;54.98;102176.66;5177016;28;20443;-52
2022/03/03 00:36:34;;;;;;;37.92;26.15;;;;;;;4.70;55.04;102170.63;5171878;28;20876;-54
2022/03/03 00:39:08;;;;;;;36.10;25.90;;;;;;;4.69;55.15;102180.25;5170486;28;20452;-47
2022/03/03 00:41:40;;;;;;;36.38;25.23;;;;;;;4.56;55.11;102151.25;5176974;28;20534;-47
2022/03/03 00:44:13;;;;;;;37.33;26.30;;;;;;;4.65;55.13;102170.03;5178765;28;20477;-47
2022/03/03 00:46:45;;;;;;;37.80;24.65;;;;;;;4.61;54.92;102164.09;5171785;28;20405;-50
2022/03/03 00:49:18;;;;;;;36.28;26.25;;;;;;;4.40;54.99;102152.97;5171526;28;20415;-48
2022/03/03 00:51:51;;;;;;;36.50;26.20;;;;;;;4.57;55.22;102175.66;5167514;28;20593;-52
2022/03/03 00:54:24;;;;;;;34.58;25.48;;;;;;;4.54;55.17;102174.03;5170806;28;20456;-47
2022/03/03 00:56:57;;;;;;;38.87;26.17;;;;;;;4.53;55.43;102167.13;5170418;28;20440;-57
2022/03/03 00:59:30;;;;;;;39.42;28.10;;;;;;;4.49;55.34;102154.25;5169293;28;20413;-49
2022/03/03 01:02:02;;;;;;;34.80;26.27;;;;;;;4.43;55.33;102134.50;5173990;28;20468;-48
2022/03/03 01:04:35;;;;;;;35.13;25.45;;;;;;;4.50;55.57;102146.34;5178971;28;20532;-46
2022/03/03 01:07:07;;;;;;;38.72;27.80;;;;;;;4.49;55.72;102149.03;5171768;28;20424;-49
2022/03/03 01:09:41;;;;;;;35.33;26.55;;;;;;;4.03;55.37;102093.84;5168638;28;20415;-49
2022/03/03 01:12:14;;;;;;;39.30;26.13;;;;;;;4.44;55.53;102141.41;5175757;28;20447;-50
2022/03/03 01:14:46;;;;;;;35.25;25.92;;;;;;;4.43;55.52;102146.72;5176320;28;20469;-51
2022/03/03 01:17:19;;;;;;;37.05;27.02;;;;;;;4.34;55.73;102130.59;5170848;28;20412;-59
2022/03/03 01:19:52;;;;;;;34.77;25.57;;;;;;;4.40;55.83;102139.91;5174627;28;20443;-49
2022/03/03 01:22:26;;;;;;;35.17;25.80;;;;;;;4.28;55.85;102130.06;5180608;28;20474;-49
2022/03/03 01:24:59;;;;;;;36.72;26.40;;;;;;;4.32;55.53;102136.81;5170199;28;20424;-51
2022/03/03 01:27:35;;;;;;;42.40;27.10;;;;;;;4.35;55.82;102137.50;5171513;28;20413;-49
2022/03/03 01:30:09;;;;;;;40.03;28.17;;;;;;;4.31;55.92;102130.75;5174479;28;20477;-51
2022/03/03 01:32:41;;;;;;;39.20;27.48;;;;;;;4.11;55.79;102092.50;5178790;28;20925;-50
2022/03/03 01:35:14;;;;;;;33.55;26.35;;;;;;;4.31;56.11;102122.06;5172634;28;20447;-46
2022/03/03 01:37:46;;;;;;;34.95;24.90;;;;;;;4.25;56.15;102119.75;5177778;28;20439;-49
2022/03/03 01:40:22;;;;;;;39.95;27.10;;;;;;;4.25;56.31;102112.75;5170620;28;20515;-56
2022/03/03 01:42:55;;;;;;;36.40;26.98;;;;;;;4.27;56.05;102110.88;5178835;28;20491;-51
2022/03/03 01:45:28;;;;;;;39.92;27.13;;;;;;;4.25;55.97;102104.91;5172436;28;20416;-55
2022/03/03 01:48:01;;;;;;;37.33;26.55;;;;;;;4.01;56.04;102062.53;5172499;28;21354;-50
2022/03/03 01:50:33;;;;;;;40.08;27.35;;;;;;;4.23;56.19;102101.50;5171144;28;20454;-51
2022/03/03 01:53:06;;;;;;;38.85;28.45;;;;;;;4.22;56.06;102098.97;5171484;28;20420;-49
2022/03/03 01:55:39;;;;;;;40.38;26.98;;;;;;;4.13;56.14;102098.50;5173834;28;20419;-57
2022/03/03 01:58:12;;;;;;;38.47;27.27;;;;;;;4.20;56.26;102090.34;5173897;28;20992;-48
2022/03/03 02:00:45;;;;;;;38.17;27.07;;;;;;;4.15;56.34;102083.59;5171820;28;20417;-49
2022/03/03 02:03:18;;;;;;;36.15;26.90;;;;;;;4.15;56.58;102085.38;5178323;28;20957;-50
2022/03/03 02:05:50;;;;;;;41.22;28.35;;;;;;;4.11;56.25;102082.03;5169481;28;20475;-54
2022/03/03 02:08:23;;;;;;;36.83;26.52;;;;;;;4.11;56.24;102089.88;5170467;28;20424;-49
2022/03/03 02:10:57;;;;;;;38.13;28.48;;;;;;;4.08;56.40;102089.19;5175010;28;20429;-61
2022/03/03 02:13:29;;;;;;;37.63;25.92;;;;;;;4.08;56.35;102082.19;5163224;28;20440;-51
2022/03/03 02:16:02;;;;;;;37.90;25.52;;;;;;;4.00;56.66;102079.16;5168824;28;20409;-50
2022/03/03 02:18:40;;;;;;;36.40;26.40;;;;;;;4.04;56.63;102085.91;5177065;28;20991;-45
2022/03/03 02:21:15;;;;;;;35.65;25.80;;;;;;;4.03;56.49;102073.75;5174020;28;20934;-50
2022/03/03 02:23:48;;;;;;;35.72;25.30;;;;;;;3.93;56.82;102067.28;5167299;28;20508;-49
2022/03/03 02:26:23;;;;;;;39.35;25.85;;;;;;;3.96;56.53;102077.59;5176976;28;20504;-51
2022/03/03 02:28:55;;;;;;;38.00;27.40;;;;;;;3.96;56.84;102072.34;5166850;28;20587;-49
2022/03/03 02:31:28;;;;;;;35.75;25.92;;;;;;;3.95;56.57;102075.06;5171568;28;20408;-46
2022/03/03 02:34:00;;;;;;;34.35;25.02;;;;;;;3.97;56.70;102076.69;5170919;28;20530;-46
2022/03/03 02:36:34;;;;;;;35.13;26.00;;;;;;;3.90;56.44;102067.44;5176898;28;20455;-51
2022/03/03 02:39:07;;;;;;;35.00;25.33;;;;;;;3.92;56.51;102073.44;5170006;28;20542;-55
2022/03/03 02:41:40;;;;;;;35.85;25.98;;;;;;;3.85;56.73;102056.38;5174167;28;20499;-58
2022/03/03 02:44:12;;;;;;;31.73;24.67;;;;;;;3.88;56.75;102074.53;5173740;28;20862;-48
2022/03/03 02:46:45;;;;;;;35.85;25.38;;;;;;;3.89;56.76;102065.75;5178372;28;20421;-51
2022/03/03 02:49:17;;;;;;;35.70;26.15;;;;;;;3.88;56.80;102064.91;5177647;28;20420;-49
2022/03/03 02:51:51;;;;;;;35.63;25.45;;;;;;;3.89;56.57;102065.75;5165518;28;20516;-51
2022/03/03 02:54:24;;;;;;;35.72;25.77;;;;;;;3.85;56.48;102051.16;5170760;28;20421;-56
2022/03/03 02:59:46;;;;;;;34.03;23.70;;;;;;;3.88;56.66;102051.00;5171589;28;20415;-49
2022/03/03 03:02:19;;;;;;;38.00;26.27;;;;;;;3.82;56.50;102040.84;5174884;28;20512;-49
2022/03/03 03:04:51;;;;;;;33.50;25.15;;;;;;;3.86;56.46;102050.22;5166816;28;20506;-50
2022/03/03 03:07:25;;;;;;;33.20;24.25;;;;;;;3.17;56.53;101950.00;5172863;28;20514;-49
2022/03/03 03:09:57;;;;;;;33.53;24.00;;;;;;;3.84;56.30;102041.59;5171993;28;20515;-55
2022/03/03 03:12:30;;;;;;;34.50;24.92;;;;;;;3.80;56.35;102040.09;5174849;28;20502;-51
2022/03/03 03:15:02;;;;;;;35.38;25.00;;;;;;;3.76;56.45;102017.66;5173979;28;20501;-47
2022/03/03 03:17:35;;;;;;;34.35;24.08;;;;;;;3.81;56.27;102036.53;5164693;28;20512;-53
2022/03/03 03:20:09;;;;;;;33.30;23.60;;;;;;;3.81;56.18;102047.00;5177648;28;20522;-56
2022/03/03 03:22:43;;;;;;;38.90;26.00;;;;;;;3.76;56.07;102036.78;5171196;28;20492;-50
2022/03/03 03:25:16;;;;;;;36.25;25.83;;;;;;;3.66;56.20;102028.56;5176286;28;22892;-46
2022/03/03 03:27:48;;;;;;;38.17;25.83;;;;;;;3.72;56.33;102037.88;5178082;28;20517;-49
2022/03/03 03:30:21;;;;;;;37.63;26.37;;;;;;;3.69;56.08;102041.47;5171054;28;20504;-52
2022/03/03 03:32:54;;;;;;;35.13;24.38;;;;;;;3.67;56.10;102037.22;5178322;28;20807;-48
2022/03/03 03:35:27;;;;;;;36.67;25.90;;;;;;;3.63;56.49;102028.72;5180907;28;20423;-50
2022/03/03 03:38:01;;;;;;;34.63;25.10;;;;;;;3.62;56.19;102026.16;5167883;28;20471;-52
2022/03/03 03:40:34;;;;;;;37.88;26.27;;;;;;;3.53;56.16;102019.63;5167336;28;20522;-55
2022/03/03 03:43:06;;;;;;;36.17;24.83;;;;;;;3.57;56.29;102020.34;5173230;28;20504;-47
2022/03/03 03:45:39;;;;;;;33.13;25.02;;;;;;;3.56;56.26;102018.63;5168520;28;20499;-49
2022/03/03 03:48:11;;;;;;;35.10;25.98;;;;;;;3.52;56.03;102015.31;5174237;28;20612;-47
2022/03/03 03:50:43;;;;;;;43.72;26.98;;;;;;;3.52;56.17;102010.09;5168525;28;20939;-52
2022/03/03 03:53:17;;;;;;;35.10;25.85;;;;;;;3.49;56.28;102010.25;5167764;28;21084;-46
2022/03/03 03:55:50;;;;;;;36.03;25.50;;;;;;;3.48;56.28;102008.56;5176085;28;20491;-51
2022/03/03 03:58:23;;;;;;;36.25;26.30;;;;;;;3.31;56.23;101979.81;5175785;28;20836;-51
2022/03/03 04:00:55;;;;;;;35.70;26.73;;;;;;;3.39;55.96;102009.00;5167498;28;20496;-52
2022/03/03 04:03:27;;;;;;;37.55;25.92;;;;;;;3.44;56.29;102009.66;5168333;28;20511;-49
2022/03/03 04:06:00;;;;;;;37.67;27.58;;;;;;;3.39;56.31;102006.41;5171519;28;20441;-46
2022/03/03 04:08:34;;;;;;;35.13;25.73;;;;;;;3.10;56.40;101968.66;5173130;28;20815;-56
2022/03/03 04:11:06;;;;;;;36.10;25.93;;;;;;;3.35;56.40;102007.47;5160466;28;20976;-54
2022/03/03 04:13:39;;;;;;;35.60;26.08;;;;;;;3.35;56.46;102012.69;5171197;28;22109;-58
2022/03/03 04:16:12;;;;;;;41.65;26.45;;;;;;;3.25;56.36;102012.28;5170544;28;20420;-54
2022/03/03 04:18:44;;;;;;;37.83;26.63;;;;;;;3.33;56.45;102004.94;5171020;28;20420;-52
2022/03/03 04:21:17;;;;;;;43.03;28.48;;;;;;;3.32;56.26;102007.63;5170446;28;20890;-46
2022/03/03 04:23:51;;;;;;;37.70;26.48;;;;;;;3.31;56.11;102003.31;5166177;28;20918;-48
2022/03/03 04:26:24;;;;;;;38.97;25.93;;;;;;;3.32;56.18;102010.25;5168567;28;20421;-52
2022/03/03 04:28:56;;;;;;;37.78;26.77;;;;;;;3.21;56.34;101998.53;5168055;28;20427;-49
2022/03/03 04:31:29;;;;;;;43.75;28.65;;;;;;;3.28;56.04;102006.06;5171501;28;20490;-53
2022/03/03 04:34:01;;;;;;;36.78;25.60;;;;;;;3.20;56.10;102002.06;5174625;28;20863;-49
2022/03/03 04:36:34;;;;;;;35.40;25.85;;;;;;;3.20;56.12;102002.06;5170451;28;20429;-51
2022/03/03 04:39:07;;;;;;;35.30;26.02;;;;;;;3.17;56.07;102015.25;5167363;28;21048;-49
2022/03/03 04:41:40;;;;;;;40.57;27.73;;;;;;;3.12;56.44;101982.47;5172145;28;20488;-46
2022/03/03 04:44:13;;;;;;;37.78;26.17;;;;;;;3.01;56.27;101969.94;5173482;28;20408;-50
2022/03/03 04:46:45;;;;;;;37.25;27.75;;;;;;;3.11;56.22;101986.00;5172479;28;20896;-47
2022/03/03 04:49:18;;;;;;;38.97;28.60;;;;;;;3.15;56.41;101980.56;5177512;28;20419;-47
2022/03/03 04:51:51;;;;;;;36.53;25.55;;;;;;;3.11;56.31;101978.19;5172747;28;20476;-51
2022/03/03 04:54:25;;;;;;;38.33;27.27;;;;;;;3.10;56.35;101987.78;5172903;28;20433;-47
2022/03/03 04:56:57;;;;;;;39.83;27.13;;;;;;;3.10;56.69;101990.38;5178995;28;20928;-48
2022/03/03 04:59:30;;;;;;;39.97;27.73;;;;;;;3.08;56.46;101989.59;5171218;28;20438;-49
2022/03/03 05:02:02;;;;;;;42.65;27.85;;;;;;;2.92;56.74;101970.38;5170181;28;20513;-47
2022/03/03 05:04:35;;;;;;;37.80;26.40;;;;;;;2.89;56.45;101971.38;5175088;28;20419;-47
2022/03/03 05:07:08;;;;;;;40.97;28.15;;;;;;;2.98;56.93;101985.75;5172300;28;20441;-47
2022/03/03 05:09:43;;;;;;;40.83;25.70;;;;;;;2.96;56.63;101991.03;5175664;28;20439;-47
2022/03/03 05:12:15;;;;;;;38.83;27.45;;;;;;;2.94;56.69;101992.88;5174660;28;20407;-47
2022/03/03 05:14:48;;;;;;;39.08;27.10;;;;;;;2.89;56.47;101983.56;5171817;28;20416;-51
2022/03/03 05:17:21;;;;;;;38.67;25.88;;;;;;;2.89;56.66;101994.00;5176323;28;20488;-48
2022/03/03 05:19:54;;;;;;;40.42;26.38;;;;;;;2.87;56.80;101990.63;5171684;28;20417;-61
2022/03/03 05:22:26;;;;;;;38.67;28.77;;;;;;;2.84;56.98;101995.97;5177683;28;20443;-47
2022/03/03 05:25:00;;;;;;;38.47;27.95;;;;;;;2.81;57.06;101989.13;5183932;28;20828;-47
2022/03/03 05:27:33;;;;;;;43.17;29.00;;;;;;;2.81;56.89;101993.50;5169765;28;20433;-47
2022/03/03 05:30:09;;;;;;;40.33;26.25;;;;;;;2.69;57.09;101963.63;5170005;28;20455;-47
2022/03/03 05:32:41;;;;;;;40.78;27.92;;;;;;;2.74;56.75;101974.69;5173653;28;20439;-50
2022/03/03 05:35:14;;;;;;;38.17;28.88;;;;;;;2.78;57.00;101981.44;5173695;28;20887;-47
2022/03/03 05:37:48;;;;;;;40.65;27.38;;;;;;;2.72;56.93;101982.56;5173987;28;20432;-47
2022/03/03 05:40:22;;;;;;;38.83;25.58;;;;;;;2.78;56.82;101987.50;5170120;28;20898;-48
2022/03/03 05:43:14;;;;;;;38.28;27.95;;;;;;;2.71;56.95;101975.66;5170649;28;20510;-48
2022/03/03 05:45:47;;;;;;;41.20;26.15;;;;;;;2.77;56.92;101982.38;5171049;28;20444;-49
2022/03/03 05:48:21;;;;;;;37.80;26.17;;;;;;;2.75;56.91;101977.22;5167520;28;20393;-48
2022/03/03 05:50:55;;;;;;;36.23;25.97;;;;;;;2.77;57.05;101985.81;5170851;28;20909;-50
2022/03/03 05:53:27;;;;;;;40.42;27.88;;;;;;;2.75;57.07;101992.84;5172889;28;20405;-49
2022/03/03 05:56:06;;;;;;;36.70;26.08;;;;;;;2.77;57.13;101985.81;5173158;28;20477;-45
2022/03/03 05:58:43;;;;;;;38.40;25.73;;;;;;;2.75;57.07;101982.44;5171288;28;20479;-46
2022/03/03 06:01:18;;;;;;;35.47;25.87;;;;;;;2.76;57.03;101994.56;5170815;28;20544;-48
2022/03/03 06:03:51;;;;;;;39.95;27.15;;;;;;;2.75;57.10;101982.44;5176553;28;20430;-51
2022/03/03 06:06:28;;;;;;;41.95;27.75;;;;;;;2.78;57.03;102005.75;5168868;28;20476;-47
2022/03/03 06:09:06;;;;;;;38.75;27.08;;;;;;;2.72;57.28;101985.19;5178306;28;20434;-46
2022/03/03 06:11:50;;;;;;;34.65;25.35;;;;;;;2.75;57.23;101997.25;5175856;28;20488;-54
2022/03/03 06:14:30;;;;;;;35.63;25.73;;;;;;;2.66;57.26;101988.06;5166634;28;20427;-49
2022/03/03 06:17:03;;;;;;;34.15;24.55;;;;;;;2.34;57.13;101936.56;5172320;28;20735;-48
2022/03/03 06:19:41;;;;;;;41.80;26.35;;;;;;;2.62;57.33;101996.13;5171457;28;20436;-47
2022/03/03 06:22:14;;;;;;;35.60;25.88;;;;;;;2.67;57.14;101999.38;5170577;28;20909;-48
2022/03/03 06:24:47;;;;;;;37.97;25.85;;;;;;;2.68;57.40;102001.91;5171178;28;20481;-49
2022/03/03 06:27:21;;;;;;;34.65;25.23;;;;;;;2.70;57.42;102009.66;5171510;28;20496;-52
2022/03/03 06:29:55;;;;;;;38.27;27.20;;;;;;;2.67;57.37;101999.38;5166655;28;20448;-46
2022/03/03 06:32:28;;;;;;;39.07;24.80;;;;;;;2.74;57.17;102011.22;5176014;28;20793;-50
2022/03/03 06:35:03;;;;;;;35.50;26.23;;;;;;;2.76;57.26;102020.66;5176510;28;20803;-54
2022/03/03 06:37:35;;;;;;;36.08;27.30;;;;;;;2.53;56.99;101972.13;5170975;28;20991;-52
2022/03/03 06:40:09;;;;;;;33.40;24.23;;;;;;;2.80;57.00;102010.09;5172750;28;20456;-45
2022/03/03 06:42:43;;;;;;;35.88;26.02;;;;;;;2.56;57.27;101971.16;5173258;28;20422;-49
2022/03/03 06:45:17;;;;;;;36.28;26.88;;;;;;;2.85;56.97;102008.09;5171938;28;20505;-49
2022/03/03 06:47:50;;;;;;;37.17;24.02;;;;;;;2.90;57.17;102016.56;5166277;28;20554;-53
2022/03/03 06:50:23;;;;;;;36.90;27.02;;;;;;;2.93;57.00;102013.81;5167919;28;20432;-59
2022/03/03 06:52:56;;;;;;;35.97;25.42;;;;;;;2.93;56.48;102006.81;5174764;28;20753;-47
2022/03/03 06:55:30;;;;;;;39.22;26.15;;;;;;;2.92;56.75;102009.53;5171505;28;20442;-51
2022/03/03 06:58:04;;;;;;;38.20;25.67;;;;;;;2.80;56.73;101973.56;5170378;28;20442;-49
2022/03/03 07:00:37;;;;;;;36.58;26.83;;;;;;;3.05;56.83;102020.22;5167416;28;20466;-53
2022/03/03 07:03:10;;;;;;;43.03;26.30;;;;;;;3.07;56.85;102014.03;5172997;28;20423;-53
2022/03/03 07:05:43;;;;;;;40.35;27.42;;;;;;;3.09;56.67;102020.00;5169845;28;20522;-48
2022/03/03 07:08:16;;;;;;;34.30;24.48;;;;;;;3.12;56.91;102022.47;5156998;28;20532;-47
2022/03/03 07:10:48;;;;;;;35.72;25.55;;;;;;;3.12;56.73;102022.47;5164493;28;20431;-49
2022/03/03 07:13:22;;;;;;;41.13;26.48;;;;;;;3.10;56.51;102019.09;5167677;28;20419;-49
2022/03/03 07:19:04;;;;;;;37.70;26.35;;;;;;;3.22;56.64;102028.94;5162242;28;20697;-48
2022/03/03 07:21:52;;;;;;;36.17;25.30;;;;;;;3.27;56.62;102028.72;5166344;28;20503;-49
2022/03/03 07:25:01;;;;;;;34.17;25.38;;;;;;;3.28;56.45;102032.16;5156404;28;20892;-51
2022/03/03 07:27:36;;;;;;;37.25;26.42;;;;;;;3.36;56.62;102024.81;5157775;28;20988;-49
2022/03/03 07:30:19;;;;;;;34.40;25.25;;;;;;;3.31;56.66;102006.75;5164858;28;20963;-52
2022/03/03 07:32:59;;;;;;;35.63;24.38;;;;;;;3.65;56.34;102026.88;5155978;28;20806;-59
2022/03/03 07:35:36;;;;;;;30.60;22.60;;;;;;;4.95;55.21;102006.09;5161942;28;20510;-52
2022/03/03 07:38:19;;;;;;;31.92;21.88;;;;;;;6.57;54.04;102026.44;5163121;28;20435;-51
2022/03/03 07:40:52;;;;;;;28.40;20.02;;;;;;;7.80;53.08;102025.50;5161861;28;20479;-57
2022/03/03 07:43:24;;;;;;;27.42;18.73;;;;;;;8.96;51.94;102026.28;5170412;28;20496;-46
2022/03/03 07:45:58;;;;;;;27.50;19.40;;;;;;;10.04;50.93;102025.28;5168825;28;20451;-46
2022/03/03 07:48:32;;;;;;;26.67;17.85;;;;;;;10.78;50.27;102020.44;5168541;28;20424;-54
2022/03/03 07:51:04;;;;;;;28.13;18.17;;;;;;;11.59;49.51;102020.06;5165644;28;20522;-52
2022/03/03 07:53:37;;;;;;;27.17;17.77;;;;;;;12.18;48.74;102001.81;5173963;28;20410;-52
2022/03/03 07:56:13;;;;;;;25.23;18.25;;;;;;;12.65;48.02;102009.25;5177423;28;20481;-50
2022/03/03 07:58:46;;;;;;;25.77;17.67;;;;;;;13.14;47.63;102023.47;5172817;28;20467;-53
2022/03/03 08:01:23;;;;;;;25.67;17.42;;;;;;;13.58;47.10;102030.06;5173484;28;20754;-48
2022/03/03 08:04:00;;;;;;;28.77;18.27;;;;;;;13.73;46.12;101964.13;5167376;28;20432;-53
2022/03/03 08:06:35;;;;;;;24.13;17.95;;;;;;;14.64;45.51;102017.53;5167584;28;20430;-51
2022/03/03 08:09:08;;;;;;;26.07;16.53;;;;;;;15.10;45.17;102023.69;5169745;28;20817;-48
2022/03/03 08:11:43;;;;;;;24.80;16.85;;;;;;;15.70;44.37;102024.94;5171172;28;20567;-53
2022/03/03 08:14:18;;;;;;;30.42;17.15;;;;;;;16.14;43.59;102002.59;5163590;28;20428;-51
2022/03/03 08:16:52;;;;;;;24.30;17.00;;;;;;;16.39;43.01;102020.56;5165089;28;20436;-52
2022/03/03 08:19:25;;;;;;;23.03;15.90;;;;;;;16.07;43.00;102000.72;5170831;28;20521;-50
2022/03/03 08:21:58;;;;;;;22.10;16.95;;;;;;;16.13;42.78;102026.72;5170274;28;20428;-54
2022/03/03 08:24:30;;;;;;;25.10;16.90;;;;;;;15.99;42.86;102022.00;5167767;28;20420;-52
2022/03/03 08:27:04;;;;;;;21.10;16.23;;;;;;;15.89;42.45;102016.78;5175531;28;20428;-52
2022/03/03 08:29:36;;;;;;;22.15;16.52;;;;;;;15.83;42.35;102033.38;5167520;28;20806;-52
2022/03/03 08:32:16;;;;;;;26.50;17.52;;;;;;;15.83;42.23;102041.38;5175380;28;20474;-51
2022/03/03 08:35:03;;;;;;;30.02;17.23;;;;;;;15.92;41.65;102045.75;5181887;28;20411;-60
2022/03/03 08:37:39;;;;;;;24.73;17.20;;;;;;;15.93;41.23;102042.09;5169119;28;20744;-55
2022/03/03 08:40:17;;;;;;;29.43;17.50;;;;;;;16.16;40.88;102026.41;5172094;28;20794;-52
2022/03/03 08:42:56;;;;;;;23.00;16.05;;;;;;;16.64;40.22;102034.84;5172689;28;20505;-51
2022/03/03 08:45:32;;;;;;;23.70;17.03;;;;;;;16.75;39.73;102032.72;5154359;28;20427;-54
2022/03/03 08:48:10;;;;;;;27.15;17.33;;;;;;;16.84;39.43;102041.59;5170168;28;20749;-47
2022/03/03 08:50:44;;;;;;;26.20;17.27;;;;;;;17.20;38.98;102036.03;5173211;28;20423;-55
2022/03/03 08:53:17;;;;;;;27.20;17.13;;;;;;;17.37;38.42;101999.50;5173823;28;20411;-51
2022/03/03 08:55:49;;;;;;;28.38;16.88;;;;;;;17.95;37.94;102036.75;5179607;28;20429;-53
2022/03/03 08:58:22;;;;;;;23.08;16.73;;;;;;;18.50;37.20;102040.47;5172240;28;20407;-56
2022/03/03 09:00:55;;;;;;;22.15;16.25;;;;;;;18.62;36.82;102006.16;5173859;28;20762;-48
2022/03/03 09:03:29;;;;;;;22.65;16.90;;;;;;;18.91;36.38;102042.16;5175323;28;20435;-57
2022/03/03 09:06:02;;;;;;;27.50;16.08;;;;;;;19.18;36.16;102039.00;5166420;28;20430;-49
2022/03/03 09:08:34;;;;;;;24.15;15.48;;;;;;;19.28;36.10;102038.75;5164704;28;20429;-52
2022/03/03 09:11:07;;;;;;;20.70;15.15;;;;;;;19.25;35.84;102042.63;5171166;28;21052;-49
2022/03/03 09:13:39;;;;;;;22.33;14.70;;;;;;;19.42;35.50;102031.78;5166812;28;20430;-47
2022/03/03 09:16:13;;;;;;;24.30;14.48;;;;;;;19.33;35.60;102039.91;5167928;28;20428;-52
2022/03/03 09:18:48;;;;;;;22.77;16.00;;;;;;;19.27;35.58;102043.28;5169885;28;20957;-51
2022/03/03 09:21:21;;;;;;;21.83;15.20;;;;;;;19.16;35.42;102024.94;5167340;28;20909;-55
2022/03/03 09:23:54;;;;;;;22.13;15.40;;;;;;;19.15;35.39;102034.00;5177522;28;20431;-55
2022/03/03 09:26:27;;;;;;;21.55;14.27;;;;;;;18.98;35.68;102035.09;5175705;28;20771;-53
2022/03/03 09:29:00;;;;;;;21.45;14.90;;;;;;;18.75;36.02;102043.91;5182077;28;20793;-56
2022/03/03 09:31:32;;;;;;;24.88;14.93;;;;;;;18.33;36.35;102034.31;5171596;28;22427;-57
2022/03/03 09:34:06;;;;;;;21.58;14.65;;;;;;;17.81;37.31;102040.13;5175269;28;20765;-51
2022/03/03 09:36:39;;;;;;;21.52;14.95;;;;;;;17.47;37.67;102029.56;5183385;28;20547;-50
2022/03/03 09:39:11;;;;;;;18.92;14.00;;;;;;;17.22;37.98;102032.22;5169162;28;20453;-51
2022/03/03 09:41:44;;;;;;;20.23;14.73;;;;;;;16.86;38.64;102028.94;5175379;28;20879;-52
2022/03/03 09:44:20;;;;;;;22.30;14.68;;;;;;;16.38;39.09;102025.03;5168555;28;20551;-50
2022/03/03 09:46:53;;;;;;;20.55;14.18;;;;;;;16.04;39.61;102028.53;5165882;28;20455;-53
2022/03/03 09:49:27;;;;;;;23.77;14.48;;;;;;;15.75;39.81;102033.31;5172079;28;20464;-57
2022/03/03 09:52:01;;;;;;;21.58;14.88;;;;;;;15.06;40.10;102022.34;5166039;28;20425;-53
2022/03/03 09:54:33;;;;;;;25.25;15.25;;;;;;;14.49;40.59;102029.59;5169140;28;20435;-54
2022/03/03 09:57:06;;;;;;;22.75;15.02;;;;;;;13.86;40.79;102026.69;5170448;28;20541;-51
2022/03/03 09:59:38;;;;;;;24.38;15.98;;;;;;;13.34;40.99;102027.00;5168526;28;20424;-53
2022/03/03 10:02:12;;;;;;;26.80;16.33;;;;;;;12.84;41.21;102014.59;5166592;28;20413;-51
2022/03/03 10:04:46;;;;;;;24.95;16.92;;;;;;;12.41;41.55;102012.22;5166828;28;20494;-49
2022/03/03 10:07:23;;;;;;;25.75;16.50;;;;;;;12.09;41.23;102022.94;5165796;28;20498;-50
2022/03/03 10:10:11;;;;;;;26.60;16.35;;;;;;;11.62;41.25;102009.25;5158754;28;20443;-48
2022/03/03 10:12:47;;;;;;;23.00;16.23;;;;;;;11.55;41.11;102019.47;5167362;28;20505;-54
2022/03/03 10:15:20;;;;;;;26.70;16.50;;;;;;;11.40;41.05;102026.88;5164646;28;20987;-51
2022/03/03 10:17:58;;;;;;;30.13;17.67;;;;;;;11.26;40.91;102003.38;5162717;28;20426;-55
2022/03/03 10:20:46;;;;;;;24.77;16.15;;;;;;;11.26;40.90;101998.06;5168307;28;20770;-53
2022/03/03 10:23:24;;;;;;;26.15;17.55;;;;;;;11.28;40.58;101990.88;5165099;28;20426;-55
2022/03/03 10:25:58;;;;;;;25.45;16.00;;;;;;;11.46;40.28;102009.69;5164419;28;20834;-49
2022/03/03 10:28:32;;;;;;;25.38;16.20;;;;;;;11.51;40.25;102012.75;5168388;28;20513;-52
2022/03/03 10:31:06;;;;;;;23.65;15.25;;;;;;;11.63;39.97;102006.44;5169001;28;20456;-48
2022/03/03 10:33:46;;;;;;;20.80;15.07;;;;;;;11.69;39.77;102010.41;5170899;28;20470;-56
2022/03/03 10:36:22;;;;;;;24.88;15.05;;;;;;;11.72;39.70;102004.84;5170030;28;21056;-56
2022/03/03 10:38:56;;;;;;;23.52;14.88;;;;;;;11.68;39.53;102012.22;5174037;28;20935;-50
2022/03/03 10:41:38;;;;;;;19.13;13.98;;;;;;;11.66;39.39;102018.59;5171340;28;20502;-51
2022/03/03 10:44:13;;;;;;;20.73;14.98;;;;;;;11.58;39.40;102008.63;5177483;28;20923;-52
2022/03/03 10:47:07;;;;;;;21.83;15.30;;;;;;;11.60;39.25;102008.50;5181217;28;20421;-50
2022/03/03 10:49:42;;;;;;;25.35;15.00;;;;;;;11.40;39.19;101999.59;5171817;28;20415;-52
2022/03/03 10:52:18;;;;;;;22.48;13.50;;;;;;;11.44;39.08;102001.84;5181901;28;20787;-57
2022/03/03 10:54:53;;;;;;;19.70;14.02;;;;;;;11.20;39.05;102019.72;5172318;28;20579;-48
2022/03/03 10:57:42;;;;;;;20.98;13.88;;;;;;;11.42;38.99;102018.81;5172606;28;20902;-48
2022/03/03 11:00:19;;;;;;;19.35;14.02;;;;;;;11.39;39.09;102019.88;5167468;28;20438;-54
2022/03/03 11:02:53;;;;;;;21.23;13.80;;;;;;;11.32;38.91;102014.28;5170534;28;20813;-50
2022/03/03 11:05:28;;;;;;;22.10;14.37;;;;;;;11.34;38.84;102016.81;5168825;28;20856;-49
2022/03/03 11:08:02;;;;;;;23.85;14.75;;;;;;;11.24;38.93;102000.84;5170371;28;20533;-49
2022/03/03 11:10:35;;;;;;;23.08;14.70;;;;;;;11.43;38.91;101999.34;5163719;28;20429;-52
2022/03/03 11:13:08;;;;;;;21.50;13.98;;;;;;;11.40;38.78;101987.22;5170098;28;20431;-50
2022/03/03 11:15:43;;;;;;;25.23;15.32;;;;;;;11.61;38.77;102004.88;5165417;28;20488;-49
2022/03/03 11:18:18;;;;;;;22.25;14.70;;;;;;;11.61;38.76;101992.50;5166245;28;20501;-53
2022/03/03 11:20:51;;;;;;;31.98;16.73;;;;;;;11.65;38.76;101993.94;5165961;28;20938;-49
2022/03/03 11:23:26;;;;;;;25.13;17.17;;;;;;;11.57;38.81;101985.78;5166097;28;20422;-54
2022/03/03 11:25:59;;;;;;;25.17;17.50;;;;;;;11.65;38.98;101993.09;5173681;28;20434;-54
2022/03/03 11:28:36;;;;;;;23.85;15.80;;;;;;;11.54;39.10;102000.09;5171464;28;20854;-52
2022/03/03 11:31:28;;;;;;;24.60;17.38;;;;;;;11.26;39.18;101961.03;5168472;28;20432;-54
2022/03/03 11:34:40;;;;;;;27.38;18.10;;;;;;;11.38;39.31;101999.72;5178666;28;20473;-50
2022/03/03 11:37:22;;;;;;;27.48;18.67;;;;;;;11.27;39.72;101989.16;5151005;28;20438;-55
2022/03/03 11:40:01;;;;;;;25.50;18.20;;;;;;;11.31;39.84;101990.63;5147196;28;20421;-58
2022/03/03 11:42:38;;;;;;;27.73;18.38;;;;;;;11.33;39.91;101988.66;5144078;28;20780;-48
2022/03/03 11:45:42;;;;;;;24.15;18.05;;;;;;;11.15;40.20;101995.44;5157937;28;20438;-53
2022/03/03 11:48:16;;;;;;;25.67;18.63;;;;;;;10.97;40.45;101992.53;5080313;28;21182;-54
2022/03/03 11:50:50;;;;;;;25.45;18.50;;;;;;;10.88;40.74;101980.06;5073850;28;20428;-48
2022/03/03 11:53:25;;;;;;;29.63;19.55;;;;;;;10.81;40.91;101985.84;5068128;29;20528;-48